Southmont, North Carolina
Current Conditions -  °F | °C
As of 2:55 PM on Wednesday 17 Dec 2014 (Local Time) from KRUQ Reporting Station
Clear Clear  
Wind Chill: 58°   Ceiling: Unl
Heat Index: 58°   Visibility: 10mi
Dew Point: 35°   Wind: 3mph
Humidity: 43%   Direction: 280°W
Pressure: 30.04"   Gusts: NA
Location:  35.67°N, 80.27°W
Report Text: KRUQ 171955Z AUTO 28003KT 10SM CLR 14/02 A3004 RMK AO2 T01420017
Loading
Personal Weather Stations






























Interactive Weather Map New forecast layout! Learn more

10-Day Weather Forecast

Advertisements
Track Severe Weather on mobile